sensor_id;sensor_type;location;lat;lon;timestamp;P1;durP1;ratioP1;P2;durP2;ratioP2
7255;SDS011;3669;49.200;9.242;2024-01-06T00:00:53;6.60;;;6.03;;
7255;SDS011;3669;49.200;9.242;2024-01-06T00:03:20;6.63;;;6.03;;
7255;SDS011;3669;49.200;9.242;2024-01-06T00:05:48;7.47;;;6.88;;
7255;SDS011;3669;49.200;9.242;2024-01-06T00:08:15;6.50;;;6.00;;
7255;SDS011;3669;49.200;9.242;2024-01-06T00:10:42;7.60;;;6.38;;
7255;SDS011;3669;49.200;9.242;2024-01-06T00:13:10;7.68;;;6.97;;
7255;SDS011;3669;49.200;9.242;2024-01-06T00:15:37;7.47;;;6.80;;
7255;SDS011;3669;49.200;9.242;2024-01-06T00:18:04;7.10;;;6.50;;
7255;SDS011;3669;49.200;9.242;2024-01-06T00:20:31;7.20;;;6.50;;
7255;SDS011;3669;49.200;9.242;2024-01-06T00:22:58;7.20;;;6.50;;
7255;SDS011;3669;49.200;9.242;2024-01-06T00:25:25;6.88;;;6.28;;
7255;SDS011;3669;49.200;9.242;2024-01-06T00:27:53;7.03;;;6.43;;
7255;SDS011;3669;49.200;9.242;2024-01-06T00:30:20;7.00;;;6.40;;
7255;SDS011;3669;49.200;9.242;2024-01-06T00:32:47;6.55;;;5.93;;
7255;SDS011;3669;49.200;9.242;2024-01-06T00:35:14;6.10;;;5.60;;
7255;SDS011;3669;49.200;9.242;2024-01-06T00:37:41;6.60;;;6.00;;
7255;SDS011;3669;49.200;9.242;2024-01-06T00:40:08;8.35;;;7.65;;
7255;SDS011;3669;49.200;9.242;2024-01-06T00:42:35;18.52;;;17.40;;
7255;SDS011;3669;49.200;9.242;2024-01-06T00:45:02;26.83;;;25.27;;
7255;SDS011;3669;49.200;9.242;2024-01-06T00:47:29;31.00;;;29.25;;
7255;SDS011;3669;49.200;9.242;2024-01-06T00:49:56;34.72;;;32.85;;
7255;SDS011;3669;49.200;9.242;2024-01-06T00:52:23;33.80;;;31.95;;
7255;SDS011;3669;49.200;9.242;2024-01-06T00:54:50;19.70;;;18.45;;
7255;SDS011;3669;49.200;9.242;2024-01-06T00:57:17;11.38;;;10.50;;
7255;SDS011;3669;49.200;9.242;2024-01-06T00:59:50;21.35;;;20.02;;
7255;SDS011;3669;49.200;9.242;2024-01-06T01:02:16;13.90;;;12.90;;
7255;SDS011;3669;49.200;9.242;2024-01-06T01:04:43;6.78;;;6.22;;
7255;SDS011;3669;49.200;9.242;2024-01-06T01:07:10;6.47;;;5.85;;
7255;SDS011;3669;49.200;9.242;2024-01-06T01:09:39;6.60;;;6.00;;
7255;SDS011;3669;49.200;9.242;2024-01-06T01:12:06;7.28;;;6.57;;
7255;SDS011;3669;49.200;9.242;2024-01-06T01:14:33;6.75;;;6.15;;
7255;SDS011;3669;49.200;9.242;2024-01-06T01:17:00;6.63;;;6.03;;
7255;SDS011;3669;49.200;9.242;2024-01-06T01:19:27;6.50;;;6.00;;
7255;SDS011;3669;49.200;9.242;2024-01-06T01:21:54;6.43;;;5.93;;
7255;SDS011;3669;49.200;9.242;2024-01-06T01:24:21;5.85;;;5.18;;
7255;SDS011;3669;49.200;9.242;2024-01-06T01:26:49;5.97;;;5.47;;
7255;SDS011;3669;49.200;9.242;2024-01-06T01:29:19;6.20;;;5.60;;
7255;SDS011;3669;49.200;9.242;2024-01-06T01:31:46;6.28;;;5.78;;
7255;SDS011;3669;49.200;9.242;2024-01-06T01:34:13;6.35;;;5.75;;
7255;SDS011;3669;49.200;9.242;2024-01-06T01:36:41;7.00;;;6.32;;
7255;SDS011;3669;49.200;9.242;2024-01-06T01:39:08;6.15;;;5.65;;
7255;SDS011;3669;49.200;9.242;2024-01-06T01:41:35;5.65;;;5.03;;
7255;SDS011;3669;49.200;9.242;2024-01-06T01:44:02;5.97;;;5.40;;
7255;SDS011;3669;49.200;9.242;2024-01-06T01:46:30;5.40;;;4.90;;
7255;SDS011;3669;49.200;9.242;2024-01-06T01:48:58;5.65;;;5.15;;
7255;SDS011;3669;49.200;9.242;2024-01-06T01:51:26;5.40;;;4.90;;
7255;SDS011;3669;49.200;9.242;2024-01-06T01:53:54;5.90;;;5.40;;
7255;SDS011;3669;49.200;9.242;2024-01-06T01:56:21;5.72;;;5.22;;
7255;SDS011;3669;49.200;9.242;2024-01-06T01:58:48;7.50;;;5.47;;
7255;SDS011;3669;49.200;9.242;2024-01-06T02:01:15;6.00;;;5.40;;
7255;SDS011;3669;49.200;9.242;2024-01-06T02:03:42;5.80;;;5.25;;
7255;SDS011;3669;49.200;9.242;2024-01-06T02:06:10;5.22;;;4.88;;
7255;SDS011;3669;49.200;9.242;2024-01-06T02:08:37;5.78;;;5.32;;
7255;SDS011;3669;49.200;9.242;2024-01-06T02:11:05;5.93;;;5.40;;
7255;SDS011;3669;49.200;9.242;2024-01-06T02:13:36;6.05;;;5.45;;
7255;SDS011;3669;49.200;9.242;2024-01-06T02:16:03;5.93;;;5.32;;
7255;SDS011;3669;49.200;9.242;2024-01-06T02:18:31;5.82;;;5.28;;
7255;SDS011;3669;49.200;9.242;2024-01-06T02:20:59;5.47;;;5.07;;
7255;SDS011;3669;49.200;9.242;2024-01-06T02:23:29;5.78;;;5.28;;
7255;SDS011;3669;49.200;9.242;2024-01-06T02:25:57;4.97;;;4.47;;
7255;SDS011;3669;49.200;9.242;2024-01-06T02:28:24;5.75;;;5.28;;
7255;SDS011;3669;49.200;9.242;2024-01-06T02:30:51;5.90;;;5.40;;
7255;SDS011;3669;49.200;9.242;2024-01-06T02:33:18;5.60;;;5.10;;
7255;SDS011;3669;49.200;9.242;2024-01-06T02:35:47;16.20;;;15.18;;
7255;SDS011;3669;49.200;9.242;2024-01-06T02:38:15;5.65;;;5.25;;
7255;SDS011;3669;49.200;9.242;2024-01-06T02:40:42;4.60;;;4.20;;
7255;SDS011;3669;49.200;9.242;2024-01-06T02:43:09;5.10;;;4.70;;
7255;SDS011;3669;49.200;9.242;2024-01-06T02:45:36;5.43;;;4.82;;
7255;SDS011;3669;49.200;9.242;2024-01-06T02:48:03;4.80;;;4.40;;
7255;SDS011;3669;49.200;9.242;2024-01-06T02:50:30;5.47;;;4.97;;
7255;SDS011;3669;49.200;9.242;2024-01-06T02:52:57;5.43;;;5.03;;
7255;SDS011;3669;49.200;9.242;2024-01-06T02:55:24;5.07;;;4.50;;
7255;SDS011;3669;49.200;9.242;2024-01-06T02:57:51;5.30;;;4.82;;
7255;SDS011;3669;49.200;9.242;2024-01-06T03:00:18;5.22;;;4.75;;
7255;SDS011;3669;49.200;9.242;2024-01-06T03:02:45;5.65;;;5.15;;
7255;SDS011;3669;49.200;9.242;2024-01-06T03:05:12;5.18;;;4.60;;
7255;SDS011;3669;49.200;9.242;2024-01-06T03:07:39;5.15;;;4.75;;
7255;SDS011;3669;49.200;9.242;2024-01-06T03:10:06;4.65;;;4.18;;
7255;SDS011;3669;49.200;9.242;2024-01-06T03:12:33;5.30;;;4.90;;
7255;SDS011;3669;49.200;9.242;2024-01-06T03:15:00;15.20;;;14.20;;
7255;SDS011;3669;49.200;9.242;2024-01-06T03:17:27;27.70;;;26.08;;
7255;SDS011;3669;49.200;9.242;2024-01-06T03:19:54;34.38;;;32.22;;
7255;SDS011;3669;49.200;9.242;2024-01-06T03:22:21;31.35;;;29.67;;
7255;SDS011;3669;49.200;9.242;2024-01-06T03:24:53;39.58;;;37.60;;
7255;SDS011;3669;49.200;9.242;2024-01-06T03:27:20;33.25;;;31.35;;
7255;SDS011;3669;49.200;9.242;2024-01-06T03:29:47;26.23;;;24.75;;
7255;SDS011;3669;49.200;9.242;2024-01-06T03:32:14;6.28;;;5.72;;
7255;SDS011;3669;49.200;9.242;2024-01-06T03:34:40;5.53;;;5.03;;
7255;SDS011;3669;49.200;9.242;2024-01-06T03:37:08;4.60;;;4.20;;
7255;SDS011;3669;49.200;9.242;2024-01-06T03:39:35;5.03;;;4.63;;
7255;SDS011;3669;49.200;9.242;2024-01-06T03:42:02;4.70;;;4.25;;
7255;SDS011;3669;49.200;9.242;2024-01-06T03:44:29;5.35;;;4.93;;
7255;SDS011;3669;49.200;9.242;2024-01-06T03:46:59;6.20;;;4.70;;
7255;SDS011;3669;49.200;9.242;2024-01-06T03:49:26;4.68;;;4.28;;
7255;SDS011;3669;49.200;9.242;2024-01-06T03:51:54;4.18;;;3.85;;
7255;SDS011;3669;49.200;9.242;2024-01-06T03:54:21;4.90;;;4.47;;
7255;SDS011;3669;49.200;9.242;2024-01-06T03:56:48;4.35;;;3.92;;
7255;SDS011;3669;49.200;9.242;2024-01-06T03:59:15;4.93;;;4.53;;
7255;SDS011;3669;49.200;9.242;2024-01-06T04:01:42;5.35;;;4.95;;
7255;SDS011;3669;49.200;9.242;2024-01-06T04:04:09;4.82;;;4.43;;
7255;SDS011;3669;49.200;9.242;2024-01-06T04:06:36;4.65;;;4.18;;
7255;SDS011;3669;49.200;9.242;2024-01-06T04:09:04;5.70;;;4.38;;
7255;SDS011;3669;49.200;9.242;2024-01-06T04:11:31;5.28;;;4.85;;
7255;SDS011;3669;49.200;9.242;2024-01-06T04:13:59;4.97;;;4.50;;
7255;SDS011;3669;49.200;9.242;2024-01-06T04:16:26;4.60;;;4.20;;
7255;SDS011;3669;49.200;9.242;2024-01-06T04:18:54;4.88;;;4.40;;
7255;SDS011;3669;49.200;9.242;2024-01-06T04:21:21;5.03;;;4.63;;
7255;SDS011;3669;49.200;9.242;2024-01-06T04:23:48;5.22;;;4.72;;
7255;SDS011;3669;49.200;9.242;2024-01-06T04:26:15;5.32;;;4.15;;
7255;SDS011;3669;49.200;9.242;2024-01-06T04:28:42;4.82;;;4.32;;
7255;SDS011;3669;49.200;9.242;2024-01-06T04:31:09;4.28;;;3.97;;
7255;SDS011;3669;49.200;9.242;2024-01-06T04:33:36;4.53;;;4.07;;
7255;SDS011;3669;49.200;9.242;2024-01-06T04:36:03;5.03;;;4.43;;
7255;SDS011;3669;49.200;9.242;2024-01-06T04:38:30;4.40;;;4.00;;
7255;SDS011;3669;49.200;9.242;2024-01-06T04:40:57;4.95;;;3.97;;
7255;SDS011;3669;49.200;9.242;2024-01-06T04:43:25;4.78;;;4.32;;
7255;SDS011;3669;49.200;9.242;2024-01-06T04:45:52;5.18;;;4.07;;
7255;SDS011;3669;49.200;9.242;2024-01-06T04:48:19;4.85;;;4.35;;
7255;SDS011;3669;49.200;9.242;2024-01-06T04:50:46;4.32;;;4.03;;
7255;SDS011;3669;49.200;9.242;2024-01-06T04:53:13;4.25;;;3.95;;
7255;SDS011;3669;49.200;9.242;2024-01-06T04:55:40;5.03;;;4.68;;
7255;SDS011;3669;49.200;9.242;2024-01-06T04:58:07;4.82;;;4.38;;
7255;SDS011;3669;49.200;9.242;2024-01-06T05:00:34;4.20;;;3.90;;
7255;SDS011;3669;49.200;9.242;2024-01-06T05:03:02;5.35;;;4.60;;
7255;SDS011;3669;49.200;9.242;2024-01-06T05:05:29;3.90;;;3.60;;
7255;SDS011;3669;49.200;9.242;2024-01-06T05:07:56;4.68;;;4.25;;
7255;SDS011;3669;49.200;9.242;2024-01-06T05:10:24;5.05;;;4.57;;
7255;SDS011;3669;49.200;9.242;2024-01-06T05:12:51;5.10;;;4.43;;
7255;SDS011;3669;49.200;9.242;2024-01-06T05:15:18;4.80;;;4.43;;
7255;SDS011;3669;49.200;9.242;2024-01-06T05:17:45;4.85;;;4.45;;
7255;SDS011;3669;49.200;9.242;2024-01-06T05:20:12;4.88;;;4.45;;
7255;SDS011;3669;49.200;9.242;2024-01-06T05:22:39;5.13;;;4.65;;
7255;SDS011;3669;49.200;9.242;2024-01-06T05:25:06;4.63;;;4.30;;
7255;SDS011;3669;49.200;9.242;2024-01-06T05:27:34;5.38;;;4.90;;
7255;SDS011;3669;49.200;9.242;2024-01-06T05:30:02;20.88;;;19.80;;
7255;SDS011;3669;49.200;9.242;2024-01-06T05:32:29;28.45;;;26.92;;
7255;SDS011;3669;49.200;9.242;2024-01-06T05:34:56;29.13;;;27.70;;
7255;SDS011;3669;49.200;9.242;2024-01-06T05:37:23;29.40;;;27.75;;
7255;SDS011;3669;49.200;9.242;2024-01-06T05:39:51;27.25;;;25.85;;
7255;SDS011;3669;49.200;9.242;2024-01-06T05:42:20;40.33;;;38.33;;
7255;SDS011;3669;49.200;9.242;2024-01-06T05:44:46;15.15;;;14.23;;
7255;SDS011;3669;49.200;9.242;2024-01-06T05:47:13;5.43;;;4.32;;
7255;SDS011;3669;49.200;9.242;2024-01-06T05:49:43;4.40;;;4.00;;
7255;SDS011;3669;49.200;9.242;2024-01-06T05:52:10;4.68;;;4.35;;
7255;SDS011;3669;49.200;9.242;2024-01-06T05:54:40;5.38;;;4.55;;
7255;SDS011;3669;49.200;9.242;2024-01-06T05:57:09;4.60;;;4.20;;
7255;SDS011;3669;49.200;9.242;2024-01-06T05:59:37;4.78;;;4.28;;
7255;SDS011;3669;49.200;9.242;2024-01-06T06:02:04;4.88;;;4.47;;
7255;SDS011;3669;49.200;9.242;2024-01-06T06:04:31;4.90;;;4.40;;
7255;SDS011;3669;49.200;9.242;2024-01-06T06:06:58;4.40;;;4.00;;
7255;SDS011;3669;49.200;9.242;2024-01-06T06:09:25;4.32;;;4.03;;
7255;SDS011;3669;49.200;9.242;2024-01-06T06:11:54;4.82;;;4.35;;
7255;SDS011;3669;49.200;9.242;2024-01-06T06:14:21;4.30;;;4.00;;
7255;SDS011;3669;49.200;9.242;2024-01-06T06:16:48;4.20;;;3.88;;
7255;SDS011;3669;49.200;9.242;2024-01-06T06:19:15;4.80;;;3.95;;
7255;SDS011;3669;49.200;9.242;2024-01-06T06:21:44;4.90;;;4.50;;
7255;SDS011;3669;49.200;9.242;2024-01-06T06:24:11;4.32;;;3.92;;
7255;SDS011;3669;49.200;9.242;2024-01-06T06:26:39;5.13;;;4.63;;
7255;SDS011;3669;49.200;9.242;2024-01-06T06:29:06;5.35;;;4.85;;
7255;SDS011;3669;49.200;9.242;2024-01-06T06:31:33;4.38;;;4.07;;
7255;SDS011;3669;49.200;9.242;2024-01-06T06:34:01;4.95;;;4.55;;
7255;SDS011;3669;49.200;9.242;2024-01-06T06:36:27;4.18;;;3.88;;
7255;SDS011;3669;49.200;9.242;2024-01-06T06:38:55;4.97;;;4.47;;
7255;SDS011;3669;49.200;9.242;2024-01-06T06:41:24;5.05;;;4.65;;
7255;SDS011;3669;49.200;9.242;2024-01-06T06:43:52;4.70;;;4.40;;
7255;SDS011;3669;49.200;9.242;2024-01-06T06:46:19;4.65;;;4.25;;
7255;SDS011;3669;49.200;9.242;2024-01-06T06:48:46;4.43;;;4.03;;
7255;SDS011;3669;49.200;9.242;2024-01-06T06:51:14;4.60;;;4.20;;
7255;SDS011;3669;49.200;9.242;2024-01-06T06:53:41;5.30;;;4.85;;
7255;SDS011;3669;49.200;9.242;2024-01-06T06:56:08;5.07;;;4.68;;
7255;SDS011;3669;49.200;9.242;2024-01-06T06:58:36;5.75;;;5.22;;
7255;SDS011;3669;49.200;9.242;2024-01-06T07:01:03;5.43;;;4.93;;
7255;SDS011;3669;49.200;9.242;2024-01-06T07:03:31;4.80;;;4.40;;
7255;SDS011;3669;49.200;9.242;2024-01-06T07:05:58;4.88;;;4.47;;
7255;SDS011;3669;49.200;9.242;2024-01-06T07:08:25;4.85;;;4.45;;
7255;SDS011;3669;49.200;9.242;2024-01-06T07:10:53;5.30;;;4.57;;
7255;SDS011;3669;49.200;9.242;2024-01-06T07:13:20;5.15;;;4.63;;
7255;SDS011;3669;49.200;9.242;2024-01-06T07:15:47;4.95;;;4.55;;
7255;SDS011;3669;49.200;9.242;2024-01-06T07:18:14;4.88;;;4.45;;
7255;SDS011;3669;49.200;9.242;2024-01-06T07:20:41;4.53;;;4.18;;
7255;SDS011;3669;49.200;9.242;2024-01-06T07:23:08;4.60;;;4.20;;
7255;SDS011;3669;49.200;9.242;2024-01-06T07:25:36;4.63;;;4.32;;
7255;SDS011;3669;49.200;9.242;2024-01-06T07:28:03;5.20;;;4.80;;
7255;SDS011;3669;49.200;9.242;2024-01-06T07:30:30;4.45;;;4.15;;
7255;SDS011;3669;49.200;9.242;2024-01-06T07:32:57;5.30;;;4.80;;
7255;SDS011;3669;49.200;9.242;2024-01-06T07:35:24;4.90;;;4.38;;
7255;SDS011;3669;49.200;9.242;2024-01-06T07:37:51;15.60;;;14.57;;
7255;SDS011;3669;49.200;9.242;2024-01-06T07:40:18;5.18;;;4.68;;
7255;SDS011;3669;49.200;9.242;2024-01-06T07:42:45;5.47;;;4.97;;
7255;SDS011;3669;49.200;9.242;2024-01-06T07:45:12;5.25;;;4.75;;
7255;SDS011;3669;49.200;9.242;2024-01-06T07:47:39;6.22;;;5.30;;
7255;SDS011;3669;49.200;9.242;2024-01-06T07:50:06;25.15;;;23.77;;
7255;SDS011;3669;49.200;9.242;2024-01-06T07:52:34;25.23;;;23.80;;
7255;SDS011;3669;49.200;9.242;2024-01-06T07:55:01;28.65;;;27.17;;
7255;SDS011;3669;49.200;9.242;2024-01-06T07:57:29;30.40;;;28.67;;
7255;SDS011;3669;49.200;9.242;2024-01-06T07:59:56;27.65;;;26.10;;
7255;SDS011;3669;49.200;9.242;2024-01-06T08:02:22;29.13;;;27.52;;
7255;SDS011;3669;49.200;9.242;2024-01-06T08:04:49;25.05;;;23.52;;
7255;SDS011;3669;49.200;9.242;2024-01-06T08:07:16;15.20;;;14.20;;
7255;SDS011;3669;49.200;9.242;2024-01-06T08:09:42;6.03;;;5.53;;
7255;SDS011;3669;49.200;9.242;2024-01-06T08:12:11;5.40;;;4.80;;
7255;SDS011;3669;49.200;9.242;2024-01-06T08:14:38;6.22;;;5.72;;
7255;SDS011;3669;49.200;9.242;2024-01-06T08:17:05;6.18;;;5.60;;
7255;SDS011;3669;49.200;9.242;2024-01-06T08:19:32;6.00;;;5.20;;
7255;SDS011;3669;49.200;9.242;2024-01-06T08:22:01;5.90;;;5.40;;
7255;SDS011;3669;49.200;9.242;2024-01-06T08:24:28;6.50;;;5.90;;
7255;SDS011;3669;49.200;9.242;2024-01-06T08:26:55;6.15;;;5.45;;
7255;SDS011;3669;49.200;9.242;2024-01-06T08:29:23;6.25;;;5.75;;
7255;SDS011;3669;49.200;9.242;2024-01-06T08:31:50;4.82;;;4.43;;
7255;SDS011;3669;49.200;9.242;2024-01-06T08:34:18;6.05;;;5.47;;
7255;SDS011;3669;49.200;9.242;2024-01-06T08:36:45;6.50;;;5.43;;
7255;SDS011;3669;49.200;9.242;2024-01-06T08:39:12;6.18;;;5.68;;
7255;SDS011;3669;49.200;9.242;2024-01-06T08:41:39;5.50;;;5.00;;
7255;SDS011;3669;49.200;9.242;2024-01-06T08:44:06;5.82;;;5.28;;
7255;SDS011;3669;49.200;9.242;2024-01-06T08:46:33;6.22;;;5.72;;
7255;SDS011;3669;49.200;9.242;2024-01-06T08:49:00;5.63;;;5.13;;
7255;SDS011;3669;49.200;9.242;2024-01-06T08:51:27;6.30;;;5.63;;
7255;SDS011;3669;49.200;9.242;2024-01-06T08:53:54;5.97;;;5.47;;
7255;SDS011;3669;49.200;9.242;2024-01-06T08:56:21;5.28;;;4.78;;
7255;SDS011;3669;49.200;9.242;2024-01-06T08:58:48;6.82;;;5.78;;
7255;SDS011;3669;49.200;9.242;2024-01-06T09:01:15;5.47;;;5.00;;
7255;SDS011;3669;49.200;9.242;2024-01-06T09:03:42;6.20;;;5.25;;
7255;SDS011;3669;49.200;9.242;2024-01-06T09:06:09;5.28;;;4.88;;
7255;SDS011;3669;49.200;9.242;2024-01-06T09:08:36;5.55;;;5.13;;
7255;SDS011;3669;49.200;9.242;2024-01-06T09:11:04;5.55;;;5.05;;
7255;SDS011;3669;49.200;9.242;2024-01-06T09:13:31;5.60;;;5.10;;
7255;SDS011;3669;49.200;9.242;2024-01-06T09:15:58;5.72;;;5.22;;
7255;SDS011;3669;49.200;9.242;2024-01-06T09:18:26;5.53;;;5.05;;
7255;SDS011;3669;49.200;9.242;2024-01-06T09:20:54;5.47;;;5.00;;
7255;SDS011;3669;49.200;9.242;2024-01-06T09:23:22;5.88;;;5.35;;
7255;SDS011;3669;49.200;9.242;2024-01-06T09:25:49;5.18;;;4.70;;
7255;SDS011;3669;49.200;9.242;2024-01-06T09:28:18;6.10;;;5.50;;
7255;SDS011;3669;49.200;9.242;2024-01-06T09:30:47;5.28;;;4.78;;
7255;SDS011;3669;49.200;9.242;2024-01-06T09:33:14;5.28;;;4.88;;
7255;SDS011;3669;49.200;9.242;2024-01-06T09:35:43;16.80;;;15.80;;
7255;SDS011;3669;49.200;9.242;2024-01-06T09:38:10;5.55;;;5.00;;
7255;SDS011;3669;49.200;9.242;2024-01-06T09:40:41;5.43;;;4.97;;
7255;SDS011;3669;49.200;9.242;2024-01-06T09:43:12;5.50;;;5.00;;
7255;SDS011;3669;49.200;9.242;2024-01-06T09:45:40;5.43;;;5.03;;
7255;SDS011;3669;49.200;9.242;2024-01-06T09:48:10;5.68;;;5.18;;
7255;SDS011;3669;49.200;9.242;2024-01-06T09:50:42;5.60;;;4.93;;
7255;SDS011;3669;49.200;9.242;2024-01-06T09:53:12;5.93;;;5.40;;
7255;SDS011;3669;49.200;9.242;2024-01-06T09:55:40;5.10;;;4.70;;
7255;SDS011;3669;49.200;9.242;2024-01-06T09:58:07;5.90;;;5.40;;
7255;SDS011;3669;49.200;9.242;2024-01-06T10:00:36;6.32;;;5.78;;
7255;SDS011;3669;49.200;9.242;2024-01-06T10:03:03;5.95;;;5.45;;
7255;SDS011;3669;49.200;9.242;2024-01-06T10:05:29;6.15;;;5.65;;
7255;SDS011;3669;49.200;9.242;2024-01-06T10:07:57;6.03;;;5.43;;
7255;SDS011;3669;49.200;9.242;2024-01-06T10:10:24;6.47;;;5.97;;
7255;SDS011;3669;49.200;9.242;2024-01-06T10:12:52;26.50;;;25.15;;
7255;SDS011;3669;49.200;9.242;2024-01-06T10:15:20;31.15;;;29.33;;
7255;SDS011;3669;49.200;9.242;2024-01-06T10:17:47;27.92;;;26.38;;
7255;SDS011;3669;49.200;9.242;2024-01-06T10:20:15;33.30;;;31.58;;
7255;SDS011;3669;49.200;9.242;2024-01-06T10:22:43;24.42;;;23.08;;
7255;SDS011;3669;49.200;9.242;2024-01-06T10:25:10;29.48;;;27.80;;
7255;SDS011;3669;49.200;9.242;2024-01-06T10:27:37;27.92;;;26.35;;
7255;SDS011;3669;49.200;9.242;2024-01-06T10:30:05;8.65;;;7.97;;
7255;SDS011;3669;49.200;9.242;2024-01-06T10:32:32;6.70;;;6.20;;
7255;SDS011;3669;49.200;9.242;2024-01-06T10:35:00;7.30;;;6.60;;
7255;SDS011;3669;49.200;9.242;2024-01-06T10:37:30;6.63;;;6.03;;
7255;SDS011;3669;49.200;9.242;2024-01-06T10:42:42;10.40;;;9.75;;
7255;SDS011;3669;49.200;9.242;2024-01-06T10:45:10;5.65;;;5.22;;
7255;SDS011;3669;49.200;9.242;2024-01-06T10:47:37;5.97;;;5.47;;
7255;SDS011;3669;49.200;9.242;2024-01-06T10:50:05;6.38;;;5.78;;
7255;SDS011;3669;49.200;9.242;2024-01-06T10:52:33;6.70;;;6.10;;
7255;SDS011;3669;49.200;9.242;2024-01-06T10:55:01;6.38;;;5.88;;
7255;SDS011;3669;49.200;9.242;2024-01-06T10:57:28;6.82;;;6.22;;
7255;SDS011;3669;49.200;9.242;2024-01-06T10:59:58;6.60;;;6.07;;
7255;SDS011;3669;49.200;9.242;2024-01-06T11:02:25;6.78;;;6.28;;
7255;SDS011;3669;49.200;9.242;2024-01-06T11:04:53;6.35;;;5.85;;
7255;SDS011;3669;49.200;9.242;2024-01-06T11:07:21;6.57;;;6.07;;
7255;SDS011;3669;49.200;9.242;2024-01-06T11:12:17;7.13;;;6.57;;
7255;SDS011;3669;49.200;9.242;2024-01-06T11:14:54;6.40;;;5.90;;
7255;SDS011;3669;49.200;9.242;2024-01-06T11:20:07;7.50;;;6.88;;
7255;SDS011;3669;49.200;9.242;2024-01-06T11:22:34;7.38;;;6.78;;
7255;SDS011;3669;49.200;9.242;2024-01-06T11:25:06;7.30;;;6.70;;
7255;SDS011;3669;49.200;9.242;2024-01-06T11:27:39;7.38;;;6.80;;
7255;SDS011;3669;49.200;9.242;2024-01-06T11:30:09;7.82;;;7.22;;
7255;SDS011;3669;49.200;9.242;2024-01-06T11:32:45;6.88;;;6.38;;
7255;SDS011;3669;49.200;9.242;2024-01-06T11:35:16;7.47;;;6.97;;
7255;SDS011;3669;49.200;9.242;2024-01-06T11:40:15;7.70;;;7.10;;
7255;SDS011;3669;49.200;9.242;2024-01-06T11:43:00;6.90;;;6.30;;
7255;SDS011;3669;49.200;9.242;2024-01-06T11:45:28;7.85;;;7.15;;
7255;SDS011;3669;49.200;9.242;2024-01-06T11:47:57;7.65;;;6.95;;
7255;SDS011;3669;49.200;9.242;2024-01-06T11:50:32;7.20;;;6.60;;
7255;SDS011;3669;49.200;9.242;2024-01-06T11:52:59;7.82;;;7.28;;
7255;SDS011;3669;49.200;9.242;2024-01-06T11:55:26;7.57;;;6.97;;
7255;SDS011;3669;49.200;9.242;2024-01-06T11:57:54;6.78;;;6.28;;
7255;SDS011;3669;49.200;9.242;2024-01-06T12:00:23;7.35;;;6.85;;
7255;SDS011;3669;49.200;9.242;2024-01-06T12:02:55;6.80;;;6.30;;
7255;SDS011;3669;49.200;9.242;2024-01-06T12:05:23;7.10;;;6.50;;
7255;SDS011;3669;49.200;9.242;2024-01-06T12:08:02;10.02;;;9.13;;
7255;SDS011;3669;49.200;9.242;2024-01-06T12:10:32;7.50;;;6.97;;
7255;SDS011;3669;49.200;9.242;2024-01-06T12:13:04;10.25;;;9.32;;
7255;SDS011;3669;49.200;9.242;2024-01-06T12:15:31;10.98;;;9.88;;
7255;SDS011;3669;49.200;9.242;2024-01-06T12:18:03;11.38;;;10.43;;
7255;SDS011;3669;49.200;9.242;2024-01-06T12:20:31;9.88;;;9.18;;
7255;SDS011;3669;49.200;9.242;2024-01-06T12:22:58;9.60;;;8.90;;
7255;SDS011;3669;49.200;9.242;2024-01-06T12:25:26;8.48;;;7.88;;
7255;SDS011;3669;49.200;9.242;2024-01-06T12:27:54;8.85;;;8.25;;
7255;SDS011;3669;49.200;9.242;2024-01-06T12:30:22;8.43;;;7.82;;
7255;SDS011;3669;49.200;9.242;2024-01-06T12:32:50;8.38;;;7.75;;
7255;SDS011;3669;49.200;9.242;2024-01-06T12:35:20;9.13;;;8.30;;
7255;SDS011;3669;49.200;9.242;2024-01-06T12:37:48;8.75;;;8.05;;
7255;SDS011;3669;49.200;9.242;2024-01-06T12:40:15;8.30;;;7.70;;
7255;SDS011;3669;49.200;9.242;2024-01-06T12:42:43;7.50;;;6.93;;
7255;SDS011;3669;49.200;9.242;2024-01-06T12:45:10;7.63;;;7.03;;
7255;SDS011;3669;49.200;9.242;2024-01-06T12:47:38;8.10;;;7.40;;
7255;SDS011;3669;49.200;9.242;2024-01-06T12:50:06;6.90;;;6.40;;
7255;SDS011;3669;49.200;9.242;2024-01-06T12:52:34;8.30;;;7.65;;
7255;SDS011;3669;49.200;9.242;2024-01-06T12:55:01;18.60;;;17.55;;
7255;SDS011;3669;49.200;9.242;2024-01-06T12:57:28;29.73;;;28.23;;
7255;SDS011;3669;49.200;9.242;2024-01-06T12:59:55;35.00;;;33.20;;
7255;SDS011;3669;49.200;9.242;2024-01-06T13:02:22;31.10;;;29.23;;
7255;SDS011;3669;49.200;9.242;2024-01-06T13:04:49;29.30;;;27.80;;
7255;SDS011;3669;49.200;9.242;2024-01-06T13:07:16;28.08;;;26.42;;
7255;SDS011;3669;49.200;9.242;2024-01-06T13:09:43;21.00;;;19.70;;
7255;SDS011;3669;49.200;9.242;2024-01-06T13:12:10;13.00;;;12.20;;
7255;SDS011;3669;49.200;9.242;2024-01-06T13:14:36;6.97;;;6.45;;
7255;SDS011;3669;49.200;9.242;2024-01-06T13:17:04;7.55;;;7.05;;
7255;SDS011;3669;49.200;9.242;2024-01-06T13:19:32;7.40;;;6.78;;
7255;SDS011;3669;49.200;9.242;2024-01-06T13:21:59;7.05;;;6.55;;
7255;SDS011;3669;49.200;9.242;2024-01-06T13:24:26;7.60;;;7.00;;
7255;SDS011;3669;49.200;9.242;2024-01-06T13:26:53;8.40;;;7.60;;
7255;SDS011;3669;49.200;9.242;2024-01-06T13:29:20;7.47;;;6.88;;
7255;SDS011;3669;49.200;9.242;2024-01-06T13:31:47;7.55;;;7.05;;
7255;SDS011;3669;49.200;9.242;2024-01-06T13:34:15;7.13;;;6.60;;
7255;SDS011;3669;49.200;9.242;2024-01-06T13:36:42;7.90;;;7.30;;
7255;SDS011;3669;49.200;9.242;2024-01-06T13:39:09;7.68;;;7.10;;
7255;SDS011;3669;49.200;9.242;2024-01-06T13:41:46;8.38;;;7.78;;
7255;SDS011;3669;49.200;9.242;2024-01-06T13:44:14;7.32;;;6.72;;
7255;SDS011;3669;49.200;9.242;2024-01-06T13:46:41;7.65;;;7.05;;
7255;SDS011;3669;49.200;9.242;2024-01-06T13:49:13;7.18;;;6.60;;
7255;SDS011;3669;49.200;9.242;2024-01-06T13:51:40;7.43;;;6.82;;
7255;SDS011;3669;49.200;9.242;2024-01-06T13:54:07;6.90;;;6.30;;
7255;SDS011;3669;49.200;9.242;2024-01-06T13:56:35;7.32;;;6.72;;
7255;SDS011;3669;49.200;9.242;2024-01-06T13:59:02;7.68;;;6.97;;
7255;SDS011;3669;49.200;9.242;2024-01-06T14:01:30;7.13;;;6.63;;
7255;SDS011;3669;49.200;9.242;2024-01-06T14:03:57;7.25;;;6.75;;
7255;SDS011;3669;49.200;9.242;2024-01-06T14:06:25;7.50;;;6.90;;
7255;SDS011;3669;49.200;9.242;2024-01-06T14:08:56;8.05;;;7.35;;
7255;SDS011;3669;49.200;9.242;2024-01-06T14:11:23;6.85;;;6.25;;
7255;SDS011;3669;49.200;9.242;2024-01-06T14:13:52;7.65;;;7.05;;
7255;SDS011;3669;49.200;9.242;2024-01-06T14:16:19;7.50;;;6.90;;
7255;SDS011;3669;49.200;9.242;2024-01-06T14:18:49;7.10;;;6.60;;
7255;SDS011;3669;49.200;9.242;2024-01-06T14:21:16;7.82;;;7.20;;
7255;SDS011;3669;49.200;9.242;2024-01-06T14:23:45;7.53;;;7.03;;
7255;SDS011;3669;49.200;9.242;2024-01-06T14:26:17;7.45;;;6.88;;
7255;SDS011;3669;49.200;9.242;2024-01-06T14:28:46;6.95;;;6.45;;
7255;SDS011;3669;49.200;9.242;2024-01-06T14:31:13;8.20;;;7.50;;
7255;SDS011;3669;49.200;9.242;2024-01-06T14:33:40;7.47;;;6.78;;
7255;SDS011;3669;49.200;9.242;2024-01-06T14:36:07;7.10;;;6.50;;
7255;SDS011;3669;49.200;9.242;2024-01-06T14:38:34;7.43;;;6.82;;
7255;SDS011;3669;49.200;9.242;2024-01-06T14:41:01;7.45;;;6.80;;
7255;SDS011;3669;49.200;9.242;2024-01-06T14:43:28;7.00;;;6.15;;
7255;SDS011;3669;49.200;9.242;2024-01-06T14:45:56;7.40;;;6.90;;
7255;SDS011;3669;49.200;9.242;2024-01-06T14:48:23;6.97;;;6.38;;
7255;SDS011;3669;49.200;9.242;2024-01-06T14:50:50;7.30;;;6.70;;
7255;SDS011;3669;49.200;9.242;2024-01-06T14:53:17;6.88;;;6.35;;
7255;SDS011;3669;49.200;9.242;2024-01-06T14:55:44;7.10;;;6.50;;
7255;SDS011;3669;49.200;9.242;2024-01-06T14:58:11;6.88;;;6.38;;
7255;SDS011;3669;49.200;9.242;2024-01-06T15:00:38;7.30;;;6.70;;
7255;SDS011;3669;49.200;9.242;2024-01-06T15:03:06;6.80;;;6.30;;
7255;SDS011;3669;49.200;9.242;2024-01-06T15:05:33;6.85;;;6.35;;
7255;SDS011;3669;49.200;9.242;2024-01-06T15:08:00;7.68;;;7.07;;
7255;SDS011;3669;49.200;9.242;2024-01-06T15:10:27;7.35;;;6.72;;
7255;SDS011;3669;49.200;9.242;2024-01-06T15:12:54;7.72;;;7.05;;
7255;SDS011;3669;49.200;9.242;2024-01-06T15:15:21;7.32;;;6.78;;
7255;SDS011;3669;49.200;9.242;2024-01-06T15:17:48;6.97;;;6.38;;
7255;SDS011;3669;49.200;9.242;2024-01-06T15:20:15;7.72;;;7.10;;
7255;SDS011;3669;49.200;9.242;2024-01-06T15:22:42;7.05;;;6.55;;
7255;SDS011;3669;49.200;9.242;2024-01-06T15:25:09;7.25;;;6.65;;